createdAt,value
2023-02-11T00:02:39.412Z,34.87
2023-02-11T00:05:42.191Z,41.03
2023-02-11T00:08:45.439Z,40.67
2023-02-11T00:11:48.428Z,38.95
2023-02-11T00:14:50.941Z,37.33
2023-02-11T00:17:53.782Z,39.67
2023-02-11T00:20:56.354Z,34.80
2023-02-11T00:24:01.909Z,28.17
2023-02-11T00:27:04.437Z,31.33
2023-02-11T00:30:07.862Z,31.37
2023-02-11T00:33:10.643Z,33.30
2023-02-11T00:36:16.162Z,32.10
2023-02-11T00:39:21.005Z,29.35
2023-02-11T00:42:23.884Z,25.37
2023-02-11T00:45:26.488Z,34.63
2023-02-11T00:48:29.402Z,34.20
2023-02-11T00:51:32.120Z,33.53
2023-02-11T00:54:35.181Z,32.95
2023-02-11T00:57:37.968Z,37.38
2023-02-11T01:00:40.949Z,42.65
2023-02-11T01:03:43.750Z,34.43
2023-02-11T01:06:46.798Z,32.63
2023-02-11T01:09:49.324Z,44.35
2023-02-11T01:12:52.232Z,34.70
2023-02-11T01:15:55.923Z,37.15
2023-02-11T01:19:00.550Z,44.00
2023-02-11T01:22:03.307Z,40.03
2023-02-11T01:25:07.649Z,52.15
2023-02-11T01:28:23.213Z,36.95
2023-02-11T01:31:26.992Z,40.30
2023-02-11T01:34:29.674Z,37.40
2023-02-11T01:37:36.462Z,47.25
2023-02-11T01:40:39.157Z,60.05
2023-02-11T01:43:45.290Z,49.55
2023-02-11T01:46:48.001Z,54.67
2023-02-11T01:49:56.170Z,45.90
2023-02-11T01:53:18.737Z,32.83
2023-02-11T01:56:40.856Z,31.23
2023-02-11T02:00:12.350Z,17.00
2023-02-11T02:03:20.266Z,20.88
2023-02-11T02:06:35.239Z,19.33
2023-02-11T02:09:42.611Z,16.87
2023-02-11T02:12:45.577Z,26.33
2023-02-11T02:15:56.473Z,18.23
2023-02-11T02:19:37.031Z,23.27
2023-02-11T02:22:58.425Z,17.53
2023-02-11T02:26:25.519Z,19.37
2023-02-11T02:29:38.229Z,20.88
2023-02-11T02:32:56.417Z,23.98
2023-02-11T02:36:12.918Z,22.60
2023-02-11T02:39:21.489Z,22.73
2023-02-11T02:42:25.301Z,33.08
2023-02-11T02:45:28.138Z,35.00
2023-02-11T02:48:35.840Z,32.88
2023-02-11T02:51:47.816Z,36.05
2023-02-11T02:54:53.937Z,42.13
2023-02-11T02:58:21.942Z,37.75
2023-02-11T03:01:35.802Z,28.98
2023-02-11T03:04:53.991Z,24.35
2023-02-11T03:08:30.812Z,26.83
2023-02-11T03:11:34.746Z,22.23
2023-02-11T03:14:37.916Z,22.70
2023-02-11T03:17:43.094Z,25.77
2023-02-11T03:20:49.449Z,25.62
2023-02-11T03:23:57.246Z,30.15
2023-02-11T03:27:09.654Z,27.53
2023-02-11T03:30:32.779Z,26.55
2023-02-11T03:34:25.103Z,29.00
2023-02-11T03:37:32.381Z,28.80
2023-02-11T03:40:40.113Z,31.27
2023-02-11T03:43:49.886Z,29.10
2023-02-11T03:46:53.059Z,26.23
2023-02-11T03:49:57.060Z,27.25
2023-02-11T03:53:01.218Z,30.77
2023-02-11T03:56:07.190Z,26.10
2023-02-11T03:59:09.867Z,23.90
2023-02-11T04:02:12.682Z,31.50
2023-02-11T04:05:16.662Z,26.75
2023-02-11T04:08:19.177Z,23.87
2023-02-11T04:11:22.086Z,22.67
2023-02-11T04:14:24.686Z,25.17
2023-02-11T04:17:27.487Z,27.02
2023-02-11T04:20:30.378Z,25.10
2023-02-11T04:23:33.279Z,22.08
2023-02-11T04:26:37.428Z,22.90
2023-02-11T04:29:40.272Z,20.80
2023-02-11T04:32:43.059Z,26.30
2023-02-11T04:35:46.078Z,24.10
2023-02-11T04:38:48.625Z,23.48
2023-02-11T04:41:51.727Z,27.13
2023-02-11T04:44:54.440Z,20.20
2023-02-11T04:47:57.282Z,23.50
2023-02-11T04:50:59.846Z,24.20
2023-02-11T04:54:02.672Z,19.65
2023-02-11T04:57:05.256Z,21.23
2023-02-11T05:00:10.077Z,19.90
2023-02-11T05:03:13.130Z,26.52
2023-02-11T05:06:15.931Z,34.80
2023-02-11T05:09:18.608Z,21.95
2023-02-11T05:12:21.910Z,27.52
2023-02-11T05:15:24.510Z,32.43
2023-02-11T05:18:27.482Z,33.80
2023-02-11T05:21:30.065Z,32.28
2023-02-11T05:24:32.967Z,32.60
2023-02-11T05:27:35.651Z,29.60
2023-02-11T05:30:38.488Z,26.90
2023-02-11T05:33:41.584Z,25.05
2023-02-11T05:36:44.421Z,28.85
2023-02-11T05:39:47.093Z,117.05
2023-02-11T05:42:49.951Z,155.68
2023-02-11T05:45:52.963Z,52.67
2023-02-11T05:48:56.810Z,37.90
2023-02-11T05:51:59.354Z,33.92
2023-02-11T05:55:02.257Z,25.42
2023-02-11T05:58:05.375Z,33.55
2023-02-11T06:01:08.234Z,67.47
2023-02-11T06:04:11.118Z,63.15
2023-02-11T06:07:13.827Z,39.38
2023-02-11T06:10:16.742Z,37.05
2023-02-11T06:13:19.885Z,38.00
2023-02-11T06:16:22.804Z,29.57
2023-02-11T06:19:25.317Z,33.38
2023-02-11T06:22:28.171Z,27.73
2023-02-11T06:25:30.723Z,39.95
2023-02-11T06:28:33.743Z,39.80
2023-02-11T06:31:38.071Z,45.17
2023-02-11T06:34:40.998Z,36.42
2023-02-11T06:37:43.675Z,23.60
2023-02-11T06:40:50.139Z,43.55
2023-02-11T06:43:53.596Z,31.42
2023-02-11T06:46:56.634Z,23.77
2023-02-11T06:49:59.189Z,39.60
2023-02-11T06:53:02.250Z,30.08
2023-02-11T06:56:06.849Z,27.65
2023-02-11T06:59:16.268Z,32.83
2023-02-11T07:02:20.898Z,33.70
2023-02-11T07:05:24.022Z,35.83
2023-02-11T07:08:27.033Z,32.67
2023-02-11T07:11:30.670Z,31.77
2023-02-11T07:14:33.481Z,25.92
2023-02-11T07:17:36.660Z,29.60
2023-02-11T07:20:39.293Z,28.40
2023-02-11T07:23:42.238Z,29.95
2023-02-11T07:26:44.979Z,29.20
2023-02-11T07:29:48.796Z,26.80
2023-02-11T07:32:51.382Z,26.73
2023-02-11T07:35:54.215Z,17.48
2023-02-11T07:38:56.958Z,31.90
2023-02-11T07:42:00.219Z,26.80
2023-02-11T07:45:03.452Z,31.45
2023-02-11T07:48:06.671Z,31.27
2023-02-11T07:51:21.190Z,34.63
2023-02-11T07:54:24.918Z,31.67
2023-02-11T07:57:27.889Z,36.95
2023-02-11T08:00:30.704Z,33.00
2023-02-11T08:03:34.698Z,33.37
2023-02-11T08:06:41.491Z,30.08
2023-02-11T08:09:44.581Z,30.83
2023-02-11T08:12:47.434Z,15.60
2023-02-11T08:15:50.592Z,30.10
2023-02-11T08:18:55.476Z,34.10
2023-02-11T08:22:00.738Z,41.60
2023-02-11T08:25:03.380Z,43.03
2023-02-11T08:28:06.347Z,109.03
2023-02-11T08:31:11.294Z,102.28
2023-02-11T08:34:14.606Z,194.47
2023-02-11T08:37:17.835Z,98.57
2023-02-11T08:40:20.760Z,65.37
2023-02-11T08:43:23.648Z,57.85
2023-02-11T08:46:27.187Z,63.55
2023-02-11T08:49:30.881Z,112.30
2023-02-11T08:52:33.780Z,57.45
2023-02-11T08:55:36.291Z,88.65
2023-02-11T08:58:39.624Z,86.45
2023-02-11T09:01:42.221Z,62.90
2023-02-11T09:04:45.203Z,62.67
2023-02-11T09:07:47.717Z,46.03
2023-02-11T09:10:50.825Z,57.42
2023-02-11T09:13:54.607Z,55.38
2023-02-11T09:16:57.683Z,81.10
2023-02-11T09:20:00.418Z,50.10
2023-02-11T09:23:03.284Z,42.75
2023-02-11T09:26:10.686Z,40.83
2023-02-11T09:29:13.957Z,40.20
2023-02-11T09:32:16.617Z,35.67
2023-02-11T09:35:19.765Z,38.33
2023-02-11T09:38:22.433Z,36.40
2023-02-11T09:41:25.516Z,30.33
2023-02-11T09:44:33.760Z,25.05
2023-02-11T09:47:50.899Z,32.83
2023-02-11T09:50:58.944Z,34.10
2023-02-11T09:54:11.667Z,31.67
2023-02-11T09:57:26.757Z,27.23
2023-02-11T10:00:36.963Z,12.10
2023-02-11T10:04:03.293Z,30.90
2023-02-11T10:07:33.229Z,35.63
2023-02-11T10:10:51.261Z,35.85
2023-02-11T10:14:15.446Z,34.42
2023-02-11T10:17:29.797Z,35.08
2023-02-11T10:20:36.694Z,27.98
2023-02-11T10:23:43.251Z,28.87
2023-02-11T10:26:46.370Z,24.80
2023-02-11T10:29:57.033Z,32.88
2023-02-11T10:33:16.848Z,27.08
2023-02-11T10:36:21.311Z,27.75
2023-02-11T10:39:26.767Z,26.80
2023-02-11T10:42:30.389Z,31.10
2023-02-11T10:45:36.438Z,35.50
2023-02-11T10:48:40.954Z,35.92
2023-02-11T10:51:43.538Z,47.05
2023-02-11T10:54:57.852Z,36.23
2023-02-11T10:58:01.869Z,41.63
2023-02-11T11:01:12.975Z,28.73
2023-02-11T11:04:31.127Z,27.33
2023-02-11T11:07:34.226Z,32.42
2023-02-11T11:10:43.363Z,43.63
2023-02-11T11:13:58.342Z,32.90
2023-02-11T11:17:00.922Z,27.50
2023-02-11T11:20:36.597Z,25.90
2023-02-11T11:23:40.207Z,39.60
2023-02-11T11:26:47.486Z,34.17
2023-02-11T11:29:52.360Z,39.25
2023-02-11T11:32:56.638Z,34.30
2023-02-11T11:36:08.797Z,40.05
2023-02-11T11:39:30.498Z,35.35
2023-02-11T11:42:35.206Z,35.33
2023-02-11T11:45:37.997Z,32.58
2023-02-11T11:48:43.427Z,34.25
2023-02-11T11:51:55.094Z,26.45
2023-02-11T11:55:16.588Z,25.42
2023-02-11T11:58:22.044Z,23.23
2023-02-11T12:01:30.620Z,24.65
2023-02-11T12:04:43.304Z,32.53
2023-02-11T12:07:54.927Z,35.75
2023-02-11T12:11:05.282Z,33.95
2023-02-11T12:14:39.986Z,31.33
2023-02-11T12:17:52.469Z,32.35
2023-02-11T12:21:17.940Z,36.95
2023-02-11T12:24:30.395Z,25.55
2023-02-11T12:27:53.309Z,32.08
2023-02-11T12:31:22.801Z,23.00
2023-02-11T12:34:34.489Z,19.62
2023-02-11T12:37:56.039Z,21.10
2023-02-11T12:41:39.507Z,23.45
2023-02-11T12:44:51.868Z,22.73
2023-02-11T12:47:59.484Z,18.70
2023-02-11T12:51:17.808Z,20.42
2023-02-11T12:54:24.577Z,25.05
2023-02-11T12:57:36.123Z,26.62
2023-02-11T13:00:44.713Z,25.33
2023-02-11T13:03:53.957Z,22.57
2023-02-11T13:07:02.281Z,23.60
2023-02-11T13:10:14.185Z,22.10
2023-02-11T13:13:23.418Z,21.37
2023-02-11T13:16:40.939Z,26.35
2023-02-11T13:20:13.718Z,22.30
2023-02-11T13:23:25.929Z,24.65
2023-02-11T13:27:03.265Z,24.60
2023-02-11T13:30:28.463Z,21.12
2023-02-11T13:33:34.901Z,22.52
2023-02-11T13:36:38.049Z,28.10
2023-02-11T13:39:41.224Z,23.67
2023-02-11T13:42:56.429Z,24.12
2023-02-11T13:46:13.184Z,26.48
2023-02-11T13:49:40.921Z,29.40
2023-02-11T13:52:44.738Z,24.87
2023-02-11T13:55:51.756Z,28.52
2023-02-11T13:58:54.683Z,29.48
2023-02-11T14:02:19.344Z,31.87
2023-02-11T14:05:47.842Z,26.73
2023-02-11T14:09:09.142Z,22.80
2023-02-11T14:12:31.646Z,24.80
2023-02-11T14:15:40.776Z,26.60
2023-02-11T14:18:50.000Z,32.22
2023-02-11T14:21:52.581Z,25.62
2023-02-11T14:24:59.346Z,24.37
2023-02-11T14:28:15.994Z,24.45
2023-02-11T14:31:23.009Z,28.20
2023-02-11T14:34:49.945Z,33.38
2023-02-11T14:38:01.051Z,19.30
2023-02-11T14:41:30.359Z,19.40
2023-02-11T14:44:34.266Z,31.85
2023-02-11T14:47:43.245Z,28.23
2023-02-11T14:51:10.684Z,42.03
2023-02-11T14:54:17.651Z,34.17
2023-02-11T14:57:20.896Z,28.93
2023-02-11T15:00:24.432Z,30.62
2023-02-11T15:03:40.577Z,35.13
2023-02-11T15:06:46.863Z,34.80
2023-02-11T15:09:51.952Z,43.38
2023-02-11T15:12:54.993Z,30.23
2023-02-11T15:16:02.419Z,19.67
2023-02-11T15:19:07.273Z,12.63
2023-02-11T15:22:20.374Z,12.20
2023-02-11T15:25:24.094Z,12.35
2023-02-11T15:28:36.460Z,11.60
2023-02-11T15:31:39.415Z,15.45
2023-02-11T15:34:43.800Z,16.42
2023-02-11T15:37:47.758Z,18.30
2023-02-11T15:40:55.462Z,15.10
2023-02-11T15:43:57.999Z,16.47
2023-02-11T15:47:01.181Z,12.40
2023-02-11T15:50:04.831Z,12.68
2023-02-11T15:53:27.670Z,12.57
2023-02-11T15:56:35.386Z,18.33
2023-02-11T15:59:41.248Z,18.90
2023-02-11T16:02:45.796Z,7.90
2023-02-11T16:05:49.087Z,19.40
2023-02-11T16:08:57.883Z,12.85
2023-02-11T16:12:04.028Z,27.52
2023-02-11T16:15:31.586Z,37.13
2023-02-11T16:18:40.088Z,20.88
2023-02-11T16:21:45.410Z,25.40
2023-02-11T16:24:50.040Z,19.20
2023-02-11T16:27:53.766Z,6.35
2023-02-11T16:30:57.485Z,16.17
2023-02-11T16:34:00.364Z,13.20
2023-02-11T16:37:04.950Z,36.05
2023-02-11T16:40:09.378Z,34.13
2023-02-11T16:43:12.578Z,31.42
2023-02-11T16:46:16.148Z,35.13
2023-02-11T16:49:25.016Z,44.97
2023-02-11T16:52:31.549Z,53.33
2023-02-11T16:55:35.181Z,48.87
2023-02-11T16:58:38.252Z,33.55
2023-02-11T17:01:42.616Z,40.30
2023-02-11T17:04:45.481Z,25.83
2023-02-11T17:07:49.257Z,27.05
2023-02-11T17:10:52.271Z,27.70
2023-02-11T17:13:55.473Z,33.33
2023-02-11T17:16:58.426Z,23.33
2023-02-11T17:20:01.534Z,23.90
2023-02-11T17:23:04.583Z,22.30
2023-02-11T17:26:07.876Z,21.85
2023-02-11T17:29:16.845Z,17.17
2023-02-11T17:32:20.022Z,11.93
2023-02-11T17:35:22.681Z,15.35
2023-02-11T17:38:26.273Z,18.65
2023-02-11T17:41:29.370Z,17.30
2023-02-11T17:44:33.242Z,19.83
2023-02-11T17:47:36.246Z,22.07
2023-02-11T17:50:39.393Z,22.95
2023-02-11T17:53:41.994Z,24.55
2023-02-11T17:56:45.515Z,24.08
2023-02-11T17:59:48.272Z,21.17
2023-02-11T18:02:51.388Z,18.70
2023-02-11T18:05:54.616Z,20.08
2023-02-11T18:08:59.816Z,27.20
2023-02-11T18:12:03.547Z,18.67
2023-02-11T18:15:06.903Z,17.80
2023-02-11T18:18:10.032Z,18.00
2023-02-11T18:21:14.946Z,18.92
2023-02-11T18:24:18.629Z,16.37
2023-02-11T18:27:22.140Z,18.67
2023-02-11T18:30:25.833Z,22.70
2023-02-11T18:33:29.142Z,19.63
2023-02-11T18:36:32.073Z,17.20
2023-02-11T18:39:34.589Z,16.00
2023-02-11T18:42:37.885Z,14.32
2023-02-11T18:45:47.992Z,18.87
2023-02-11T18:48:55.603Z,14.77
2023-02-11T18:51:58.906Z,12.68
2023-02-11T18:55:02.040Z,12.55
2023-02-11T18:58:05.079Z,15.05
2023-02-11T19:01:17.923Z,9.13
2023-02-11T19:04:23.424Z,18.70
2023-02-11T19:07:26.624Z,20.55
2023-02-11T19:10:29.690Z,14.00
2023-02-11T19:13:32.984Z,16.87
2023-02-11T19:16:40.821Z,12.77
2023-02-11T19:19:43.892Z,16.30
2023-02-11T19:22:46.755Z,13.98
2023-02-11T19:25:49.760Z,19.17
2023-02-11T19:28:53.108Z,11.73
2023-02-11T19:31:56.242Z,8.75
2023-02-11T19:34:59.293Z,8.67
2023-02-11T19:38:06.006Z,11.50
2023-02-11T19:41:10.243Z,11.88
2023-02-11T19:44:14.070Z,16.95
2023-02-11T19:47:17.009Z,16.52
2023-02-11T19:50:20.046Z,12.47
2023-02-11T19:53:23.178Z,12.00
2023-02-11T19:56:28.412Z,14.52
2023-02-11T19:59:31.167Z,15.23
2023-02-11T20:02:34.544Z,17.60
2023-02-11T20:05:40.121Z,19.33
2023-02-11T20:08:43.515Z,13.65
2023-02-11T20:11:46.674Z,10.40
2023-02-11T20:14:49.337Z,12.80
2023-02-11T20:17:52.449Z,16.65
2023-02-11T20:20:55.278Z,14.37
2023-02-11T20:23:59.942Z,11.48
2023-02-11T20:27:03.340Z,11.20
2023-02-11T20:30:06.905Z,21.85
2023-02-11T20:33:09.708Z,9.88
2023-02-11T20:36:18.417Z,11.60
2023-02-11T20:39:23.807Z,13.98
2023-02-11T20:42:27.428Z,16.40
2023-02-11T20:45:31.325Z,18.35
2023-02-11T20:48:34.790Z,15.00
2023-02-11T20:51:38.129Z,12.20
2023-02-11T20:54:41.375Z,14.05
2023-02-11T20:57:44.279Z,17.00
2023-02-11T21:00:47.199Z,18.37
2023-02-11T21:03:55.852Z,14.73
2023-02-11T21:07:00.478Z,13.93
2023-02-11T21:10:03.479Z,15.38
2023-02-11T21:13:06.861Z,11.18
2023-02-11T21:16:12.938Z,12.15
2023-02-11T21:19:16.451Z,11.45
2023-02-11T21:22:19.613Z,10.47
2023-02-11T21:25:22.777Z,13.05
2023-02-11T21:28:28.931Z,13.52
2023-02-11T21:31:34.108Z,13.45
2023-02-11T21:34:36.986Z,11.95
2023-02-11T21:37:40.111Z,16.10
2023-02-11T21:40:42.852Z,12.50
2023-02-11T21:43:46.020Z,15.48
2023-02-11T21:46:48.753Z,11.52
2023-02-11T21:49:51.952Z,10.13
2023-02-11T21:52:54.860Z,13.87
2023-02-11T21:56:04.927Z,11.20
2023-02-11T21:59:07.498Z,18.92
2023-02-11T22:02:10.887Z,15.85
2023-02-11T22:05:13.717Z,14.45
2023-02-11T22:08:19.147Z,16.83
2023-02-11T22:11:23.564Z,16.73
2023-02-11T22:14:26.380Z,16.58
2023-02-11T22:17:29.473Z,16.15
2023-02-11T22:20:32.152Z,13.52
2023-02-11T22:23:35.521Z,13.60
2023-02-11T22:26:38.296Z,19.75
2023-02-11T22:29:41.171Z,13.93
2023-02-11T22:32:43.930Z,17.45
2023-02-11T22:35:46.698Z,18.40
2023-02-11T22:38:49.787Z,18.17
2023-02-11T22:41:54.452Z,21.30
2023-02-11T22:44:57.184Z,18.00
2023-02-11T22:48:00.166Z,17.83
2023-02-11T22:51:19.577Z,10.63
2023-02-11T22:54:22.850Z,13.70
2023-02-11T22:57:25.413Z,16.10
2023-02-11T23:00:31.497Z,16.58
2023-02-11T23:03:34.680Z,20.80
2023-02-11T23:06:37.570Z,19.50
2023-02-11T23:09:40.318Z,23.57
2023-02-11T23:12:43.209Z,17.52
2023-02-11T23:15:47.809Z,20.83
2023-02-11T23:18:51.307Z,22.87
2023-02-11T23:21:53.917Z,22.52
2023-02-11T23:24:56.785Z,23.33
2023-02-11T23:28:00.178Z,19.42
2023-02-11T23:31:14.886Z,18.77
2023-02-11T23:34:18.481Z,17.77
2023-02-11T23:37:21.331Z,17.80
2023-02-11T23:40:23.947Z,22.43
2023-02-11T23:43:27.023Z,19.10
2023-02-11T23:46:29.718Z,23.73
2023-02-11T23:49:32.746Z,19.67
2023-02-11T23:52:35.755Z,15.65
2023-02-11T23:55:42.689Z,13.67
2023-02-11T23:58:51.714Z,21.52
